sensor_id;sensor_type;location;lat;lon;timestamp;P1;durP1;ratioP1;P2;durP2;ratioP2
73508;SDS011;61750;55.036;73.312;2022-08-19T00:01:47;4.82;;;1.00;;
73508;SDS011;61750;55.036;73.312;2022-08-19T00:04:21;4.63;;;1.00;;
73508;SDS011;61750;55.036;73.312;2022-08-19T00:06:49;1.95;;;1.05;;
73508;SDS011;61750;55.036;73.312;2022-08-19T00:09:17;2.28;;;1.02;;
73508;SDS011;61750;55.036;73.312;2022-08-19T00:11:45;3.45;;;1.20;;
73508;SDS011;61750;55.036;73.312;2022-08-19T00:14:14;5.38;;;1.05;;
73508;SDS011;61750;55.036;73.312;2022-08-19T00:16:43;2.63;;;0.90;;
73508;SDS011;61750;55.036;73.312;2022-08-19T00:19:15;4.15;;;1.20;;
73508;SDS011;61750;55.036;73.312;2022-08-19T00:21:42;3.88;;;0.95;;
73508;SDS011;61750;55.036;73.312;2022-08-19T00:24:09;2.67;;;1.00;;
73508;SDS011;61750;55.036;73.312;2022-08-19T00:26:37;5.72;;;1.00;;
73508;SDS011;61750;55.036;73.312;2022-08-19T00:29:10;2.25;;;1.00;;
73508;SDS011;61750;55.036;73.312;2022-08-19T00:31:38;3.35;;;1.30;;
73508;SDS011;61750;55.036;73.312;2022-08-19T00:34:08;3.15;;;1.00;;
73508;SDS011;61750;55.036;73.312;2022-08-19T00:36:34;3.42;;;1.10;;
73508;SDS011;61750;55.036;73.312;2022-08-19T00:39:01;2.28;;;1.10;;
73508;SDS011;61750;55.036;73.312;2022-08-19T00:41:27;1.90;;;0.90;;
73508;SDS011;61750;55.036;73.312;2022-08-19T00:46:30;1.60;;;0.77;;
73508;SDS011;61750;55.036;73.312;2022-08-19T00:48:58;2.05;;;0.90;;
73508;SDS011;61750;55.036;73.312;2022-08-19T00:51:26;2.13;;;0.93;;
73508;SDS011;61750;55.036;73.312;2022-08-19T00:53:58;2.05;;;0.90;;
73508;SDS011;61750;55.036;73.312;2022-08-19T00:56:26;2.00;;;1.00;;
73508;SDS011;61750;55.036;73.312;2022-08-19T00:59:03;2.25;;;0.95;;
73508;SDS011;61750;55.036;73.312;2022-08-19T01:01:38;1.90;;;0.90;;
73508;SDS011;61750;55.036;73.312;2022-08-19T01:04:12;2.05;;;0.70;;
73508;SDS011;61750;55.036;73.312;2022-08-19T01:06:43;2.20;;;1.00;;
73508;SDS011;61750;55.036;73.312;2022-08-19T01:09:09;2.53;;;1.00;;
73508;SDS011;61750;55.036;73.312;2022-08-19T01:11:38;2.38;;;1.10;;
73508;SDS011;61750;55.036;73.312;2022-08-19T01:14:07;2.47;;;0.90;;
73508;SDS011;61750;55.036;73.312;2022-08-19T01:16:35;2.25;;;0.90;;
73508;SDS011;61750;55.036;73.312;2022-08-19T01:19:04;2.67;;;0.93;;
73508;SDS011;61750;55.036;73.312;2022-08-19T01:22:05;3.72;;;1.05;;
73508;SDS011;61750;55.036;73.312;2022-08-19T01:24:51;4.00;;;0.88;;
73508;SDS011;61750;55.036;73.312;2022-08-19T01:27:19;6.80;;;1.08;;
73508;SDS011;61750;55.036;73.312;2022-08-19T01:29:45;1.91;;;0.74;;
73508;SDS011;61750;55.036;73.312;2022-08-19T01:32:22;3.85;;;0.85;;
73508;SDS011;61750;55.036;73.312;2022-08-19T01:34:48;7.63;;;1.00;;
73508;SDS011;61750;55.036;73.312;2022-08-19T01:37:15;3.45;;;1.02;;
73508;SDS011;61750;55.036;73.312;2022-08-19T01:39:41;2.75;;;0.95;;
73508;SDS011;61750;55.036;73.312;2022-08-19T01:42:13;4.45;;;0.90;;
73508;SDS011;61750;55.036;73.312;2022-08-19T01:44:40;3.00;;;1.00;;
73508;SDS011;61750;55.036;73.312;2022-08-19T01:47:07;2.15;;;1.00;;
73508;SDS011;61750;55.036;73.312;2022-08-19T01:49:40;4.15;;;1.13;;
73508;SDS011;61750;55.036;73.312;2022-08-19T01:52:07;2.60;;;1.08;;
73508;SDS011;61750;55.036;73.312;2022-08-19T01:54:40;2.30;;;0.95;;
73508;SDS011;61750;55.036;73.312;2022-08-19T01:57:08;2.85;;;1.00;;
73508;SDS011;61750;55.036;73.312;2022-08-19T01:59:41;2.22;;;0.90;;
73508;SDS011;61750;55.036;73.312;2022-08-19T02:02:08;2.53;;;0.80;;
73508;SDS011;61750;55.036;73.312;2022-08-19T02:04:41;2.25;;;0.90;;
73508;SDS011;61750;55.036;73.312;2022-08-19T02:07:08;2.08;;;0.80;;
73508;SDS011;61750;55.036;73.312;2022-08-19T02:09:40;3.16;;;1.12;;
73508;SDS011;61750;55.036;73.312;2022-08-19T02:12:07;3.40;;;0.90;;
73508;SDS011;61750;55.036;73.312;2022-08-19T02:14:44;1.90;;;1.03;;
73508;SDS011;61750;55.036;73.312;2022-08-19T02:19:40;3.03;;;1.05;;
73508;SDS011;61750;55.036;73.312;2022-08-19T02:22:07;3.00;;;1.25;;
73508;SDS011;61750;55.036;73.312;2022-08-19T02:24:40;2.30;;;1.00;;
73508;SDS011;61750;55.036;73.312;2022-08-19T02:27:07;2.85;;;1.00;;
73508;SDS011;61750;55.036;73.312;2022-08-19T02:29:40;2.73;;;1.10;;
73508;SDS011;61750;55.036;73.312;2022-08-19T02:32:07;2.75;;;1.10;;
73508;SDS011;61750;55.036;73.312;2022-08-19T02:34:43;3.18;;;0.96;;
73508;SDS011;61750;55.036;73.312;2022-08-19T02:37:09;3.20;;;1.10;;
73508;SDS011;61750;55.036;73.312;2022-08-19T02:39:57;3.00;;;1.10;;
73508;SDS011;61750;55.036;73.312;2022-08-19T02:42:29;2.38;;;1.00;;
73508;SDS011;61750;55.036;73.312;2022-08-19T02:44:57;1.85;;;0.90;;
73508;SDS011;61750;55.036;73.312;2022-08-19T02:47:23;4.50;;;1.00;;
73508;SDS011;61750;55.036;73.312;2022-08-19T02:49:54;2.60;;;1.10;;
73508;SDS011;61750;55.036;73.312;2022-08-19T02:52:32;2.42;;;1.25;;
73508;SDS011;61750;55.036;73.312;2022-08-19T02:55:10;2.50;;;1.20;;
73508;SDS011;61750;55.036;73.312;2022-08-19T02:57:47;2.10;;;1.10;;
73508;SDS011;61750;55.036;73.312;2022-08-19T03:00:23;2.60;;;1.20;;
73508;SDS011;61750;55.036;73.312;2022-08-19T03:02:50;2.58;;;1.17;;
73508;SDS011;61750;55.036;73.312;2022-08-19T03:05:18;2.25;;;1.15;;
73508;SDS011;61750;55.036;73.312;2022-08-19T03:07:45;3.05;;;1.00;;
73508;SDS011;61750;55.036;73.312;2022-08-19T03:10:22;2.65;;;1.20;;
73508;SDS011;61750;55.036;73.312;2022-08-19T03:12:49;2.80;;;1.10;;
73508;SDS011;61750;55.036;73.312;2022-08-19T03:15:15;2.27;;;1.10;;
73508;SDS011;61750;55.036;73.312;2022-08-19T03:17:42;1.90;;;1.10;;
73508;SDS011;61750;55.036;73.312;2022-08-19T03:20:13;2.70;;;1.15;;
73508;SDS011;61750;55.036;73.312;2022-08-19T03:22:49;2.63;;;1.35;;
73508;SDS011;61750;55.036;73.312;2022-08-19T03:25:21;3.45;;;1.50;;
73508;SDS011;61750;55.036;73.312;2022-08-19T03:27:47;4.90;;;1.20;;
73508;SDS011;61750;55.036;73.312;2022-08-19T03:30:19;2.92;;;1.27;;
73508;SDS011;61750;55.036;73.312;2022-08-19T03:32:45;2.53;;;1.40;;
73508;SDS011;61750;55.036;73.312;2022-08-19T03:35:22;3.50;;;1.50;;
73508;SDS011;61750;55.036;73.312;2022-08-19T03:37:49;3.30;;;1.40;;
73508;SDS011;61750;55.036;73.312;2022-08-19T03:40:26;3.58;;;1.50;;
73508;SDS011;61750;55.036;73.312;2022-08-19T03:42:57;3.25;;;1.42;;
73508;SDS011;61750;55.036;73.312;2022-08-19T03:45:29;2.90;;;1.50;;
73508;SDS011;61750;55.036;73.312;2022-08-19T03:48:05;2.83;;;1.50;;
73508;SDS011;61750;55.036;73.312;2022-08-19T03:50:32;4.60;;;1.60;;
73508;SDS011;61750;55.036;73.312;2022-08-19T03:52:58;3.03;;;1.60;;
73508;SDS011;61750;55.036;73.312;2022-08-19T03:55:25;3.00;;;1.60;;
73508;SDS011;61750;55.036;73.312;2022-08-19T03:57:51;2.90;;;1.42;;
73508;SDS011;61750;55.036;73.312;2022-08-19T04:00:18;2.67;;;1.50;;
73508;SDS011;61750;55.036;73.312;2022-08-19T04:02:45;4.03;;;1.85;;
73508;SDS011;61750;55.036;73.312;2022-08-19T04:05:22;3.83;;;1.65;;
73508;SDS011;61750;55.036;73.312;2022-08-19T04:07:58;5.10;;;1.60;;
73508;SDS011;61750;55.036;73.312;2022-08-19T04:10:26;3.15;;;1.90;;
73508;SDS011;61750;55.036;73.312;2022-08-19T04:12:53;3.30;;;1.65;;
73508;SDS011;61750;55.036;73.312;2022-08-19T04:15:30;2.90;;;1.60;;
73508;SDS011;61750;55.036;73.312;2022-08-19T04:18:04;5.25;;;1.85;;
73508;SDS011;61750;55.036;73.312;2022-08-19T04:20:41;4.95;;;1.92;;
73508;SDS011;61750;55.036;73.312;2022-08-19T04:23:14;4.10;;;1.73;;
73508;SDS011;61750;55.036;73.312;2022-08-19T04:25:42;4.65;;;2.28;;
73508;SDS011;61750;55.036;73.312;2022-08-19T04:28:20;3.85;;;1.90;;
73508;SDS011;61750;55.036;73.312;2022-08-19T04:30:48;8.60;;;1.90;;
73508;SDS011;61750;55.036;73.312;2022-08-19T04:33:18;4.60;;;1.90;;
73508;SDS011;61750;55.036;73.312;2022-08-19T04:35:47;3.13;;;1.80;;
73508;SDS011;61750;55.036;73.312;2022-08-19T04:38:20;5.32;;;1.70;;
73508;SDS011;61750;55.036;73.312;2022-08-19T04:40:50;3.30;;;1.77;;
73508;SDS011;61750;55.036;73.312;2022-08-19T04:43:36;3.45;;;1.80;;
73508;SDS011;61750;55.036;73.312;2022-08-19T04:46:07;5.53;;;1.92;;
73508;SDS011;61750;55.036;73.312;2022-08-19T04:48:36;6.50;;;1.80;;
73508;SDS011;61750;55.036;73.312;2022-08-19T04:51:06;4.40;;;1.98;;
73508;SDS011;61750;55.036;73.312;2022-08-19T04:53:36;6.63;;;1.92;;
73508;SDS011;61750;55.036;73.312;2022-08-19T04:56:07;16.35;;;2.50;;
73508;SDS011;61750;55.036;73.312;2022-08-19T04:58:39;7.55;;;2.10;;
73508;SDS011;61750;55.036;73.312;2022-08-19T05:01:11;5.72;;;2.20;;
73508;SDS011;61750;55.036;73.312;2022-08-19T05:03:54;3.88;;;1.98;;
73508;SDS011;61750;55.036;73.312;2022-08-19T05:06:32;7.65;;;2.20;;
73508;SDS011;61750;55.036;73.312;2022-08-19T05:09:09;8.75;;;2.63;;
73508;SDS011;61750;55.036;73.312;2022-08-19T05:11:36;13.18;;;2.50;;
73508;SDS011;61750;55.036;73.312;2022-08-19T05:14:05;13.60;;;2.80;;
73508;SDS011;61750;55.036;73.312;2022-08-19T05:16:32;10.50;;;3.00;;
73508;SDS011;61750;55.036;73.312;2022-08-19T05:18:59;11.98;;;2.90;;
73508;SDS011;61750;55.036;73.312;2022-08-19T05:21:50;10.98;;;2.85;;
73508;SDS011;61750;55.036;73.312;2022-08-19T05:24:40;17.04;;;3.16;;
73508;SDS011;61750;55.036;73.312;2022-08-19T05:27:07;8.43;;;2.45;;
73508;SDS011;61750;55.036;73.312;2022-08-19T05:29:40;8.07;;;2.70;;
73508;SDS011;61750;55.036;73.312;2022-08-19T05:32:07;11.13;;;2.78;;
73508;SDS011;61750;55.036;73.312;2022-08-19T05:34:41;6.80;;;2.50;;
73508;SDS011;61750;55.036;73.312;2022-08-19T05:37:08;7.85;;;2.42;;
73508;SDS011;61750;55.036;73.312;2022-08-19T05:39:40;8.42;;;2.40;;
73508;SDS011;61750;55.036;73.312;2022-08-19T05:42:08;9.85;;;2.60;;
73508;SDS011;61750;55.036;73.312;2022-08-19T05:44:41;14.00;;;2.35;;
73508;SDS011;61750;55.036;73.312;2022-08-19T05:47:10;9.25;;;2.50;;
73508;SDS011;61750;55.036;73.312;2022-08-19T05:49:48;8.05;;;2.53;;
73508;SDS011;61750;55.036;73.312;2022-08-19T05:52:17;9.23;;;2.72;;
73508;SDS011;61750;55.036;73.312;2022-08-19T05:54:44;8.57;;;2.49;;
73508;SDS011;61750;55.036;73.312;2022-08-19T05:57:14;8.80;;;2.45;;
73508;SDS011;61750;55.036;73.312;2022-08-19T05:59:40;7.38;;;2.05;;
73508;SDS011;61750;55.036;73.312;2022-08-19T06:02:08;12.07;;;2.30;;
73508;SDS011;61750;55.036;73.312;2022-08-19T06:04:41;4.50;;;2.00;;
73508;SDS011;61750;55.036;73.312;2022-08-19T06:07:10;5.75;;;2.00;;
73508;SDS011;61750;55.036;73.312;2022-08-19T06:09:40;6.95;;;2.20;;
73508;SDS011;61750;55.036;73.312;2022-08-19T06:12:07;7.15;;;2.15;;
73508;SDS011;61750;55.036;73.312;2022-08-19T06:14:40;4.78;;;2.12;;
73508;SDS011;61750;55.036;73.312;2022-08-19T06:17:07;8.43;;;2.33;;
73508;SDS011;61750;55.036;73.312;2022-08-19T06:19:40;5.68;;;1.77;;
73508;SDS011;61750;55.036;73.312;2022-08-19T06:22:09;5.38;;;1.80;;
73508;SDS011;61750;55.036;73.312;2022-08-19T06:24:40;5.15;;;2.08;;
73508;SDS011;61750;55.036;73.312;2022-08-19T06:27:07;6.50;;;1.85;;
73508;SDS011;61750;55.036;73.312;2022-08-19T06:29:40;6.42;;;2.07;;
73508;SDS011;61750;55.036;73.312;2022-08-19T06:32:08;8.55;;;1.80;;
73508;SDS011;61750;55.036;73.312;2022-08-19T06:34:41;4.12;;;1.90;;
73508;SDS011;61750;55.036;73.312;2022-08-19T06:37:08;4.22;;;1.63;;
73508;SDS011;61750;55.036;73.312;2022-08-19T06:39:41;5.80;;;1.80;;
73508;SDS011;61750;55.036;73.312;2022-08-19T06:42:09;7.05;;;2.30;;
73508;SDS011;61750;55.036;73.312;2022-08-19T06:44:40;5.72;;;2.20;;
73508;SDS011;61750;55.036;73.312;2022-08-19T06:47:09;5.95;;;1.73;;
73508;SDS011;61750;55.036;73.312;2022-08-19T06:49:41;4.80;;;1.60;;
73508;SDS011;61750;55.036;73.312;2022-08-19T06:52:08;6.40;;;1.85;;
73508;SDS011;61750;55.036;73.312;2022-08-19T06:54:41;3.45;;;1.50;;
73508;SDS011;61750;55.036;73.312;2022-08-19T06:57:10;3.50;;;1.70;;
73508;SDS011;61750;55.036;73.312;2022-08-19T06:59:40;3.97;;;1.55;;
73508;SDS011;61750;55.036;73.312;2022-08-19T07:02:07;7.15;;;1.98;;
73508;SDS011;61750;55.036;73.312;2022-08-19T07:04:41;5.47;;;1.82;;
73508;SDS011;61750;55.036;73.312;2022-08-19T07:07:10;6.85;;;1.70;;
73508;SDS011;61750;55.036;73.312;2022-08-19T07:09:42;5.72;;;1.65;;
73508;SDS011;61750;55.036;73.312;2022-08-19T07:12:10;4.15;;;1.70;;
73508;SDS011;61750;55.036;73.312;2022-08-19T07:14:41;3.25;;;1.48;;
73508;SDS011;61750;55.036;73.312;2022-08-19T07:17:09;4.60;;;1.77;;
73508;SDS011;61750;55.036;73.312;2022-08-19T07:19:40;7.97;;;1.55;;
73508;SDS011;61750;55.036;73.312;2022-08-19T07:22:08;5.70;;;1.60;;
73508;SDS011;61750;55.036;73.312;2022-08-19T07:24:40;5.07;;;1.52;;
73508;SDS011;61750;55.036;73.312;2022-08-19T07:27:07;4.45;;;1.60;;
73508;SDS011;61750;55.036;73.312;2022-08-19T07:29:40;6.28;;;1.60;;
73508;SDS011;61750;55.036;73.312;2022-08-19T07:32:07;3.97;;;1.70;;
73508;SDS011;61750;55.036;73.312;2022-08-19T07:34:41;4.52;;;1.50;;
73508;SDS011;61750;55.036;73.312;2022-08-19T07:37:08;4.68;;;1.70;;
73508;SDS011;61750;55.036;73.312;2022-08-19T07:39:40;5.48;;;1.88;;
73508;SDS011;61750;55.036;73.312;2022-08-19T07:42:07;4.10;;;1.50;;
73508;SDS011;61750;55.036;73.312;2022-08-19T07:44:40;3.20;;;1.50;;
73508;SDS011;61750;55.036;73.312;2022-08-19T07:49:40;4.10;;;1.79;;
73508;SDS011;61750;55.036;73.312;2022-08-19T07:52:08;4.03;;;1.40;;
73508;SDS011;61750;55.036;73.312;2022-08-19T07:54:40;5.10;;;1.60;;
73508;SDS011;61750;55.036;73.312;2022-08-19T07:57:07;3.40;;;1.50;;
73508;SDS011;61750;55.036;73.312;2022-08-19T07:59:40;5.15;;;1.70;;
73508;SDS011;61750;55.036;73.312;2022-08-19T08:02:07;4.22;;;1.48;;
73508;SDS011;61750;55.036;73.312;2022-08-19T08:04:41;3.44;;;1.54;;
73508;SDS011;61750;55.036;73.312;2022-08-19T08:07:26;4.75;;;1.50;;
73508;SDS011;61750;55.036;73.312;2022-08-19T08:10:10;4.30;;;1.60;;
73508;SDS011;61750;55.036;73.312;2022-08-19T08:12:39;4.95;;;1.60;;
73508;SDS011;61750;55.036;73.312;2022-08-19T08:15:09;4.60;;;1.75;;
73508;SDS011;61750;55.036;73.312;2022-08-19T08:17:42;3.95;;;1.70;;
73508;SDS011;61750;55.036;73.312;2022-08-19T08:20:08;4.13;;;1.50;;
73508;SDS011;61750;55.036;73.312;2022-08-19T08:22:35;3.25;;;1.60;;
73508;SDS011;61750;55.036;73.312;2022-08-19T08:25:21;5.80;;;1.75;;
73508;SDS011;61750;55.036;73.312;2022-08-19T08:27:49;6.55;;;1.95;;
73508;SDS011;61750;55.036;73.312;2022-08-19T08:30:17;4.35;;;1.65;;
73508;SDS011;61750;55.036;73.312;2022-08-19T08:32:47;3.15;;;1.60;;
73508;SDS011;61750;55.036;73.312;2022-08-19T08:35:15;4.82;;;1.63;;
73508;SDS011;61750;55.036;73.312;2022-08-19T08:37:44;3.40;;;1.65;;
73508;SDS011;61750;55.036;73.312;2022-08-19T08:40:23;3.65;;;1.65;;
73508;SDS011;61750;55.036;73.312;2022-08-19T08:43:07;4.05;;;1.70;;
73508;SDS011;61750;55.036;73.312;2022-08-19T08:45:55;4.07;;;1.55;;
73508;SDS011;61750;55.036;73.312;2022-08-19T08:48:34;3.15;;;1.40;;
73508;SDS011;61750;55.036;73.312;2022-08-19T08:51:12;13.77;;;2.50;;
73508;SDS011;61750;55.036;73.312;2022-08-19T08:53:49;7.53;;;2.20;;
73508;SDS011;61750;55.036;73.312;2022-08-19T08:56:25;7.57;;;2.17;;
73508;SDS011;61750;55.036;73.312;2022-08-19T08:59:02;4.75;;;2.05;;
73508;SDS011;61750;55.036;73.312;2022-08-19T09:01:37;3.83;;;1.70;;
73508;SDS011;61750;55.036;73.312;2022-08-19T09:04:04;5.22;;;1.55;;
73508;SDS011;61750;55.036;73.312;2022-08-19T09:09:29;4.43;;;1.90;;
73508;SDS011;61750;55.036;73.312;2022-08-19T09:15:12;4.85;;;2.20;;
73508;SDS011;61750;55.036;73.312;2022-08-19T09:17:40;4.78;;;2.00;;
73508;SDS011;61750;55.036;73.312;2022-08-19T09:22:44;6.25;;;2.20;;
73508;SDS011;61750;55.036;73.312;2022-08-19T09:25:10;7.22;;;2.50;;
73508;SDS011;61750;55.036;73.312;2022-08-19T09:27:46;13.45;;;2.58;;
73508;SDS011;61750;55.036;73.312;2022-08-19T09:30:15;7.50;;;2.60;;
73508;SDS011;61750;55.036;73.312;2022-08-19T09:32:44;8.90;;;2.55;;
73508;SDS011;61750;55.036;73.312;2022-08-19T09:35:11;6.03;;;2.50;;
73508;SDS011;61750;55.036;73.312;2022-08-19T09:37:38;8.07;;;2.40;;
73508;SDS011;61750;55.036;73.312;2022-08-19T09:40:10;7.25;;;2.50;;
73508;SDS011;61750;55.036;73.312;2022-08-19T09:42:37;5.07;;;2.40;;
73508;SDS011;61750;55.036;73.312;2022-08-19T09:45:03;4.72;;;2.22;;
73508;SDS011;61750;55.036;73.312;2022-08-19T09:47:30;7.65;;;2.28;;
73508;SDS011;61750;55.036;73.312;2022-08-19T09:49:57;7.00;;;2.45;;
73508;SDS011;61750;55.036;73.312;2022-08-19T09:52:23;7.82;;;3.03;;
73508;SDS011;61750;55.036;73.312;2022-08-19T09:54:54;4.45;;;2.50;;
73508;SDS011;61750;55.036;73.312;2022-08-19T09:57:20;4.65;;;2.70;;
73508;SDS011;61750;55.036;73.312;2022-08-19T09:59:46;7.20;;;2.73;;
73508;SDS011;61750;55.036;73.312;2022-08-19T10:02:13;7.03;;;2.85;;
73508;SDS011;61750;55.036;73.312;2022-08-19T10:04:41;5.07;;;2.65;;
73508;SDS011;61750;55.036;73.312;2022-08-19T10:07:26;6.82;;;2.85;;
73508;SDS011;61750;55.036;73.312;2022-08-19T10:09:54;6.45;;;2.80;;
73508;SDS011;61750;55.036;73.312;2022-08-19T10:12:21;5.63;;;2.92;;
73508;SDS011;61750;55.036;73.312;2022-08-19T10:14:51;5.10;;;2.83;;
73508;SDS011;61750;55.036;73.312;2022-08-19T10:17:23;5.60;;;2.80;;
73508;SDS011;61750;55.036;73.312;2022-08-19T10:19:51;8.27;;;3.05;;
73508;SDS011;61750;55.036;73.312;2022-08-19T10:22:26;5.60;;;2.70;;
73508;SDS011;61750;55.036;73.312;2022-08-19T10:24:53;6.07;;;2.40;;
73508;SDS011;61750;55.036;73.312;2022-08-19T10:27:19;4.40;;;2.70;;
73508;SDS011;61750;55.036;73.312;2022-08-19T10:29:55;5.35;;;3.03;;
73508;SDS011;61750;55.036;73.312;2022-08-19T10:32:31;5.18;;;2.63;;
73508;SDS011;61750;55.036;73.312;2022-08-19T10:34:58;4.70;;;2.63;;
73508;SDS011;61750;55.036;73.312;2022-08-19T10:37:24;4.38;;;2.50;;
73508;SDS011;61750;55.036;73.312;2022-08-19T10:39:50;5.03;;;2.58;;
73508;SDS011;61750;55.036;73.312;2022-08-19T10:42:16;3.97;;;2.40;;
73508;SDS011;61750;55.036;73.312;2022-08-19T10:44:44;4.33;;;2.50;;
73508;SDS011;61750;55.036;73.312;2022-08-19T10:47:11;4.38;;;2.40;;
73508;SDS011;61750;55.036;73.312;2022-08-19T10:49:40;6.47;;;2.70;;
73508;SDS011;61750;55.036;73.312;2022-08-19T10:52:26;4.85;;;2.50;;
73508;SDS011;61750;55.036;73.312;2022-08-19T10:55:08;4.90;;;2.70;;
73508;SDS011;61750;55.036;73.312;2022-08-19T10:57:58;3.55;;;2.50;;
73508;SDS011;61750;55.036;73.312;2022-08-19T11:00:29;4.80;;;2.55;;
73508;SDS011;61750;55.036;73.312;2022-08-19T11:03:06;4.00;;;2.47;;
73508;SDS011;61750;55.036;73.312;2022-08-19T11:05:32;3.47;;;2.33;;
73508;SDS011;61750;55.036;73.312;2022-08-19T11:07:59;3.88;;;2.28;;
73508;SDS011;61750;55.036;73.312;2022-08-19T11:10:25;4.32;;;2.47;;
73508;SDS011;61750;55.036;73.312;2022-08-19T11:12:51;4.20;;;2.63;;
73508;SDS011;61750;55.036;73.312;2022-08-19T11:15:20;4.25;;;2.40;;
73508;SDS011;61750;55.036;73.312;2022-08-19T11:17:47;5.60;;;2.40;;
73508;SDS011;61750;55.036;73.312;2022-08-19T11:22:40;7.17;;;3.00;;
73508;SDS011;61750;55.036;73.312;2022-08-19T11:25:08;12.37;;;2.90;;
73508;SDS011;61750;55.036;73.312;2022-08-19T11:27:41;5.82;;;2.58;;
73508;SDS011;61750;55.036;73.312;2022-08-19T11:30:09;6.55;;;2.45;;
73508;SDS011;61750;55.036;73.312;2022-08-19T11:32:37;5.28;;;2.42;;
73508;SDS011;61750;55.036;73.312;2022-08-19T11:35:04;3.72;;;2.45;;
73508;SDS011;61750;55.036;73.312;2022-08-19T11:37:30;4.82;;;2.63;;
73508;SDS011;61750;55.036;73.312;2022-08-19T11:39:56;4.93;;;2.30;;
73508;SDS011;61750;55.036;73.312;2022-08-19T11:42:22;5.47;;;2.75;;
73508;SDS011;61750;55.036;73.312;2022-08-19T11:45:06;5.28;;;2.90;;
73508;SDS011;61750;55.036;73.312;2022-08-19T11:47:33;4.57;;;2.50;;
73508;SDS011;61750;55.036;73.312;2022-08-19T11:49:59;5.05;;;2.60;;
73508;SDS011;61750;55.036;73.312;2022-08-19T11:52:25;5.25;;;2.50;;
73508;SDS011;61750;55.036;73.312;2022-08-19T11:54:52;4.22;;;2.70;;
73508;SDS011;61750;55.036;73.312;2022-08-19T11:57:18;5.15;;;2.35;;
73508;SDS011;61750;55.036;73.312;2022-08-19T11:59:49;4.43;;;2.61;;
73508;SDS011;61750;55.036;73.312;2022-08-19T12:02:16;4.22;;;2.50;;
73508;SDS011;61750;55.036;73.312;2022-08-19T12:04:44;9.02;;;2.33;;
73508;SDS011;61750;55.036;73.312;2022-08-19T12:07:10;5.00;;;2.38;;
73508;SDS011;61750;55.036;73.312;2022-08-19T12:09:40;4.00;;;2.55;;
73508;SDS011;61750;55.036;73.312;2022-08-19T12:12:06;3.70;;;2.20;;
73508;SDS011;61750;55.036;73.312;2022-08-19T12:14:40;5.17;;;2.35;;
73508;SDS011;61750;55.036;73.312;2022-08-19T12:17:06;5.25;;;2.38;;
73508;SDS011;61750;55.036;73.312;2022-08-19T12:19:40;4.00;;;2.26;;
73508;SDS011;61750;55.036;73.312;2022-08-19T12:22:06;3.60;;;2.20;;
73508;SDS011;61750;55.036;73.312;2022-08-19T12:24:40;4.35;;;2.38;;
73508;SDS011;61750;55.036;73.312;2022-08-19T12:27:06;8.80;;;2.55;;
73508;SDS011;61750;55.036;73.312;2022-08-19T12:29:40;7.04;;;2.33;;
73508;SDS011;61750;55.036;73.312;2022-08-19T12:32:06;3.70;;;2.10;;
73508;SDS011;61750;55.036;73.312;2022-08-19T12:34:41;5.75;;;2.53;;
73508;SDS011;61750;55.036;73.312;2022-08-19T12:39:41;6.47;;;2.55;;
73508;SDS011;61750;55.036;73.312;2022-08-19T12:42:09;6.75;;;2.30;;
73508;SDS011;61750;55.036;73.312;2022-08-19T12:44:41;3.75;;;2.30;;
73508;SDS011;61750;55.036;73.312;2022-08-19T12:47:13;5.80;;;2.50;;
73508;SDS011;61750;55.036;73.312;2022-08-19T12:52:06;5.93;;;2.58;;
73508;SDS011;61750;55.036;73.312;2022-08-19T12:54:40;8.14;;;2.30;;
73508;SDS011;61750;55.036;73.312;2022-08-19T12:57:07;4.07;;;2.20;;
73508;SDS011;61750;55.036;73.312;2022-08-19T12:59:40;4.14;;;2.00;;
73508;SDS011;61750;55.036;73.312;2022-08-19T13:04:43;3.22;;;2.05;;
73508;SDS011;61750;55.036;73.312;2022-08-19T13:07:14;3.65;;;2.17;;
73508;SDS011;61750;55.036;73.312;2022-08-19T13:09:40;6.80;;;2.10;;
73508;SDS011;61750;55.036;73.312;2022-08-19T13:12:07;3.40;;;2.33;;
73508;SDS011;61750;55.036;73.312;2022-08-19T13:14:40;4.57;;;2.45;;
73508;SDS011;61750;55.036;73.312;2022-08-19T13:17:07;3.47;;;2.10;;
73508;SDS011;61750;55.036;73.312;2022-08-19T13:19:40;3.62;;;2.32;;
73508;SDS011;61750;55.036;73.312;2022-08-19T13:22:11;4.82;;;2.00;;
73508;SDS011;61750;55.036;73.312;2022-08-19T13:27:14;3.75;;;2.20;;
73508;SDS011;61750;55.036;73.312;2022-08-19T13:29:50;2.97;;;1.88;;
73508;SDS011;61750;55.036;73.312;2022-08-19T13:32:35;3.80;;;2.50;;
73508;SDS011;61750;55.036;73.312;2022-08-19T13:35:19;3.97;;;2.13;;
73508;SDS011;61750;55.036;73.312;2022-08-19T13:37:45;4.55;;;2.55;;
73508;SDS011;61750;55.036;73.312;2022-08-19T13:40:19;4.07;;;2.08;;
73508;SDS011;61750;55.036;73.312;2022-08-19T13:42:59;3.47;;;2.17;;
73508;SDS011;61750;55.036;73.312;2022-08-19T13:45:32;3.78;;;2.33;;
73508;SDS011;61750;55.036;73.312;2022-08-19T13:47:59;4.07;;;2.22;;
73508;SDS011;61750;55.036;73.312;2022-08-19T13:50:32;8.35;;;2.72;;
73508;SDS011;61750;55.036;73.312;2022-08-19T13:52:59;4.47;;;2.20;;
73508;SDS011;61750;55.036;73.312;2022-08-19T13:55:37;6.70;;;2.20;;
73508;SDS011;61750;55.036;73.312;2022-08-19T13:58:08;4.68;;;2.70;;
73508;SDS011;61750;55.036;73.312;2022-08-19T14:00:40;3.83;;;2.30;;
73508;SDS011;61750;55.036;73.312;2022-08-19T14:03:12;4.50;;;2.20;;
73508;SDS011;61750;55.036;73.312;2022-08-19T14:05:43;3.72;;;2.20;;
73508;SDS011;61750;55.036;73.312;2022-08-19T14:10:46;4.73;;;2.30;;
73508;SDS011;61750;55.036;73.312;2022-08-19T14:13:19;4.78;;;2.70;;
73508;SDS011;61750;55.036;73.312;2022-08-19T14:15:52;4.28;;;2.42;;
73508;SDS011;61750;55.036;73.312;2022-08-19T14:20:44;4.70;;;2.33;;
73508;SDS011;61750;55.036;73.312;2022-08-19T14:23:20;5.55;;;2.55;;
73508;SDS011;61750;55.036;73.312;2022-08-19T14:25:48;5.47;;;2.78;;
73508;SDS011;61750;55.036;73.312;2022-08-19T14:28:14;4.13;;;2.63;;
73508;SDS011;61750;55.036;73.312;2022-08-19T14:30:42;3.45;;;2.40;;
73508;SDS011;61750;55.036;73.312;2022-08-19T14:33:26;5.82;;;2.25;;
73508;SDS011;61750;55.036;73.312;2022-08-19T14:35:52;4.90;;;2.85;;
73508;SDS011;61750;55.036;73.312;2022-08-19T14:38:18;5.97;;;2.88;;
73508;SDS011;61750;55.036;73.312;2022-08-19T14:40:55;5.68;;;2.50;;
73508;SDS011;61750;55.036;73.312;2022-08-19T14:46:01;4.28;;;2.40;;
73508;SDS011;61750;55.036;73.312;2022-08-19T14:50:53;5.03;;;2.70;;
73508;SDS011;61750;55.036;73.312;2022-08-19T14:53:19;5.47;;;2.70;;
73508;SDS011;61750;55.036;73.312;2022-08-19T14:55:47;5.55;;;2.60;;
73508;SDS011;61750;55.036;73.312;2022-08-19T14:58:14;4.13;;;2.40;;
73508;SDS011;61750;55.036;73.312;2022-08-19T15:00:46;5.13;;;2.70;;
73508;SDS011;61750;55.036;73.312;2022-08-19T15:03:17;5.85;;;2.78;;
73508;SDS011;61750;55.036;73.312;2022-08-19T15:05:45;4.82;;;2.85;;
73508;SDS011;61750;55.036;73.312;2022-08-19T15:10:43;5.18;;;2.50;;
73508;SDS011;61750;55.036;73.312;2022-08-19T15:13:19;5.03;;;2.67;;
73508;SDS011;61750;55.036;73.312;2022-08-19T15:15:50;4.88;;;2.78;;
73508;SDS011;61750;55.036;73.312;2022-08-19T15:20:43;3.92;;;2.65;;
73508;SDS011;61750;55.036;73.312;2022-08-19T15:23:10;3.88;;;2.63;;
73508;SDS011;61750;55.036;73.312;2022-08-19T15:25:36;4.18;;;2.60;;
73508;SDS011;61750;55.036;73.312;2022-08-19T15:30:29;8.15;;;2.80;;
73508;SDS011;61750;55.036;73.312;2022-08-19T15:32:56;4.07;;;2.90;;
73508;SDS011;61750;55.036;73.312;2022-08-19T15:35:23;4.22;;;2.85;;
73508;SDS011;61750;55.036;73.312;2022-08-19T15:37:54;5.30;;;2.80;;
73508;SDS011;61750;55.036;73.312;2022-08-19T15:40:21;7.45;;;3.03;;